createdAt,value
2023-05-22T00:00:27.220Z,41.38
2023-05-22T00:02:58.628Z,41.36
2023-05-22T00:05:30.512Z,41.26
2023-05-22T00:08:02.064Z,41.12
2023-05-22T00:10:33.174Z,41.22
2023-05-22T00:13:04.404Z,41.36
2023-05-22T00:15:36.357Z,41.74
2023-05-22T00:18:08.479Z,42.01
2023-05-22T00:20:41.119Z,42.06
2023-05-22T00:23:15.225Z,42.13
2023-05-22T00:25:46.962Z,41.79
2023-05-22T00:28:18.056Z,41.68
2023-05-22T00:30:50.045Z,41.59
2023-05-22T00:33:22.055Z,41.56
2023-05-22T00:35:53.554Z,41.36
2023-05-22T00:38:35.471Z,41.31
2023-05-22T00:41:07.914Z,41.29
2023-05-22T00:43:42.003Z,41.23
2023-05-22T00:46:14.584Z,41.24
2023-05-22T00:48:46.037Z,41.14
2023-05-22T00:51:17.544Z,41.18
2023-05-22T00:53:49.299Z,41.07
2023-05-22T00:56:21.939Z,41.10
2023-05-22T00:58:53.447Z,41.11
2023-05-22T01:01:26.622Z,41.13
2023-05-22T01:04:00.032Z,41.03
2023-05-22T01:06:34.369Z,41.08
2023-05-22T01:09:06.546Z,41.09
2023-05-22T01:11:49.643Z,41.06
2023-05-22T01:14:27.210Z,40.94
2023-05-22T01:17:09.225Z,40.90
2023-05-22T01:20:07.717Z,40.95
2023-05-22T01:23:09.064Z,40.95
2023-05-22T01:26:09.136Z,40.88
2023-05-22T01:29:13.213Z,40.82
2023-05-22T01:31:47.538Z,40.78
2023-05-22T01:34:21.482Z,40.87
2023-05-22T01:36:54.702Z,40.74
2023-05-22T01:39:27.232Z,40.86
2023-05-22T01:41:59.566Z,40.76
2023-05-22T01:44:31.736Z,40.90
2023-05-22T01:47:05.305Z,40.80
2023-05-22T01:49:37.852Z,40.76
2023-05-22T01:52:19.025Z,40.95
2023-05-22T01:54:54.898Z,40.91
2023-05-22T01:57:34.232Z,40.95
2023-05-22T02:00:10.120Z,40.95
2023-05-22T02:02:51.975Z,41.03
2023-05-22T02:05:26.967Z,40.98
2023-05-22T02:08:02.136Z,40.99
2023-05-22T02:10:35.856Z,40.98
2023-05-22T02:13:07.639Z,40.93
2023-05-22T02:15:39.030Z,40.96
2023-05-22T02:18:14.881Z,40.99
2023-05-22T02:20:48.680Z,40.93
2023-05-22T02:23:20.109Z,40.99
2023-05-22T02:25:51.376Z,40.99
2023-05-22T02:28:22.905Z,40.98
2023-05-22T02:30:54.732Z,41.10
2023-05-22T02:33:27.288Z,40.99
2023-05-22T02:35:59.197Z,40.87
2023-05-22T02:38:31.083Z,40.87
2023-05-22T02:41:02.410Z,40.97
2023-05-22T02:43:33.542Z,40.84
2023-05-22T02:46:04.989Z,40.83
2023-05-22T02:48:37.189Z,40.89
2023-05-22T02:51:09.285Z,41.06
2023-05-22T02:53:41.982Z,40.91
2023-05-22T02:56:13.650Z,40.76
2023-05-22T02:58:44.524Z,40.84
2023-05-22T03:01:15.828Z,40.61
2023-05-22T03:03:48.748Z,40.78
2023-05-22T03:06:20.207Z,40.64
2023-05-22T03:08:51.831Z,40.65
2023-05-22T03:11:23.315Z,40.58
2023-05-22T03:13:55.106Z,40.56
2023-05-22T03:16:27.037Z,40.61
2023-05-22T03:19:11.761Z,40.49
2023-05-22T03:21:44.314Z,40.53
2023-05-22T03:24:16.226Z,40.54
2023-05-22T03:26:47.311Z,40.61
2023-05-22T03:29:23.693Z,40.62
2023-05-22T03:31:56.224Z,40.67
2023-05-22T03:34:28.010Z,40.59
2023-05-22T03:36:59.555Z,40.53
2023-05-22T03:39:30.904Z,40.54
2023-05-22T03:42:10.618Z,40.52
2023-05-22T03:44:42.207Z,40.60
2023-05-22T03:47:13.928Z,40.64
2023-05-22T03:49:44.988Z,40.52
2023-05-22T03:52:16.861Z,40.49
2023-05-22T03:54:48.141Z,40.54
2023-05-22T03:57:20.256Z,40.59
2023-05-22T03:59:51.865Z,40.63
2023-05-22T04:02:26.716Z,40.61
2023-05-22T04:04:58.211Z,40.63
2023-05-22T04:07:29.722Z,40.69
2023-05-22T04:10:00.999Z,40.61
2023-05-22T04:12:32.137Z,40.65
2023-05-22T04:15:03.215Z,40.59
2023-05-22T04:17:43.211Z,40.80
2023-05-22T04:20:16.576Z,40.72
2023-05-22T04:22:49.237Z,40.73
2023-05-22T04:25:20.525Z,40.85
2023-05-22T04:27:51.916Z,40.81
2023-05-22T04:30:25.813Z,40.96
2023-05-22T04:32:57.861Z,41.35
2023-05-22T04:35:30.790Z,40.97
2023-05-22T04:38:03.765Z,40.89
2023-05-22T04:40:35.300Z,40.81
2023-05-22T04:43:07.763Z,40.79
2023-05-22T04:45:39.503Z,40.79
2023-05-22T04:48:12.167Z,40.83
2023-05-22T04:50:46.460Z,40.82
2023-05-22T04:53:18.008Z,40.74
2023-05-22T04:55:49.930Z,40.75
2023-05-22T04:58:21.542Z,40.79
2023-05-22T05:00:52.803Z,40.82
2023-05-22T05:03:26.634Z,40.91
2023-05-22T05:05:59.613Z,40.79
2023-05-22T05:08:31.967Z,40.82
2023-05-22T05:11:03.570Z,40.74
2023-05-22T05:13:35.113Z,40.83
2023-05-22T05:16:07.850Z,40.76
2023-05-22T05:18:39.329Z,40.79
2023-05-22T05:21:11.069Z,40.75
2023-05-22T05:23:42.761Z,40.79
2023-05-22T05:26:13.714Z,40.79
2023-05-22T05:28:44.983Z,40.73
2023-05-22T05:31:17.902Z,40.70
2023-05-22T05:33:58.381Z,40.73
2023-05-22T05:36:36.406Z,40.75
2023-05-22T05:39:08.547Z,40.76
2023-05-22T05:41:40.141Z,40.65
2023-05-22T05:44:13.602Z,40.73
2023-05-22T05:46:45.191Z,40.73
2023-05-22T05:49:17.372Z,40.72
2023-05-22T05:51:48.585Z,40.76
2023-05-22T05:54:21.052Z,40.72
2023-05-22T05:56:53.534Z,40.66
2023-05-22T05:59:25.473Z,40.72
2023-05-22T06:02:25.954Z,40.67
2023-05-22T06:04:59.071Z,40.66
2023-05-22T06:07:32.451Z,40.61
2023-05-22T06:10:05.020Z,40.58
2023-05-22T06:12:42.981Z,40.46
2023-05-22T06:15:14.558Z,40.65
2023-05-22T06:17:46.502Z,40.53
2023-05-22T06:20:18.152Z,40.48
2023-05-22T06:22:49.712Z,40.59
2023-05-22T06:25:21.422Z,40.55
2023-05-22T06:27:53.181Z,40.44
2023-05-22T06:30:38.900Z,40.37
2023-05-22T06:33:14.901Z,40.37
2023-05-22T06:35:46.703Z,40.33
2023-05-22T06:38:17.866Z,40.22
2023-05-22T06:40:50.039Z,40.05
2023-05-22T06:43:25.268Z,39.99
2023-05-22T06:46:02.560Z,39.80
2023-05-22T06:48:48.959Z,39.91
2023-05-22T06:51:31.555Z,39.85
2023-05-22T06:54:09.554Z,39.91
2023-05-22T06:56:41.793Z,39.75
2023-05-22T06:59:19.773Z,39.68
2023-05-22T07:02:10.962Z,39.56
2023-05-22T07:05:03.399Z,39.27
2023-05-22T07:07:38.793Z,39.03
2023-05-22T07:10:12.359Z,39.17
2023-05-22T07:12:43.651Z,38.91
2023-05-22T07:15:15.422Z,38.81
2023-05-22T07:17:50.992Z,38.73
2023-05-22T07:23:10.098Z,38.74
2023-05-22T07:25:43.572Z,38.47
2023-05-22T07:28:15.482Z,38.40
2023-05-22T07:31:13.145Z,38.41
2023-05-22T07:33:45.532Z,38.44
2023-05-22T07:36:19.264Z,38.30
2023-05-22T07:38:50.831Z,38.31
2023-05-22T07:41:24.165Z,38.34
2023-05-22T07:43:55.470Z,38.28
2023-05-22T07:46:31.868Z,38.17
2023-05-22T07:49:11.548Z,38.10
2023-05-22T07:51:44.579Z,37.92
2023-05-22T07:54:16.553Z,37.93
2023-05-22T07:56:49.905Z,37.82
2023-05-22T07:59:22.241Z,37.79
2023-05-22T08:01:56.560Z,37.78
2023-05-22T08:04:30.122Z,37.60
2023-05-22T08:07:02.003Z,37.50
2023-05-22T08:09:33.328Z,37.41
2023-05-22T08:12:04.650Z,37.58
2023-05-22T08:14:38.799Z,37.69
2023-05-22T08:17:09.899Z,37.61
2023-05-22T08:19:41.236Z,37.46
2023-05-22T08:22:12.755Z,37.42
2023-05-22T08:24:43.750Z,37.36
2023-05-22T08:27:15.578Z,37.29
2023-05-22T08:29:46.535Z,37.07
2023-05-22T08:32:17.535Z,37.13
2023-05-22T08:34:49.005Z,36.98
2023-05-22T08:37:20.062Z,36.80
2023-05-22T08:39:50.930Z,36.58
2023-05-22T08:42:22.417Z,36.49
2023-05-22T08:44:55.812Z,36.55
2023-05-22T08:47:28.577Z,36.45
2023-05-22T08:50:01.535Z,36.39
2023-05-22T08:52:38.666Z,36.83
2023-05-22T08:55:12.038Z,36.52
2023-05-22T08:57:43.983Z,36.81
2023-05-22T09:00:17.586Z,36.74
2023-05-22T09:02:50.336Z,36.37
2023-05-22T09:05:26.855Z,36.34
2023-05-22T09:08:08.492Z,36.16
2023-05-22T09:10:47.815Z,35.91
2023-05-22T09:13:28.413Z,36.06
2023-05-22T09:16:09.629Z,35.96
2023-05-22T09:18:41.493Z,35.81
2023-05-22T09:21:28.644Z,35.69
2023-05-22T09:24:04.365Z,35.66
2023-05-22T09:26:36.275Z,35.52
2023-05-22T09:29:08.824Z,35.65
2023-05-22T09:31:45.660Z,35.64
2023-05-22T09:34:18.235Z,35.49
2023-05-22T09:36:50.187Z,35.47
2023-05-22T09:39:21.780Z,35.44
2023-05-22T09:41:53.477Z,35.53
2023-05-22T09:44:28.142Z,35.46
2023-05-22T09:46:59.308Z,35.44
2023-05-22T09:49:30.689Z,35.35
2023-05-22T09:52:03.309Z,35.47
2023-05-22T09:54:37.121Z,35.43
2023-05-22T09:57:12.069Z,35.32
2023-05-22T09:59:49.499Z,35.34
2023-05-22T10:02:21.836Z,35.33
2023-05-22T10:04:53.564Z,35.26
2023-05-22T10:07:28.377Z,35.47
2023-05-22T10:10:05.881Z,35.31
2023-05-22T10:12:43.752Z,35.53
2023-05-22T10:15:16.599Z,35.52
2023-05-22T10:17:48.959Z,35.33
2023-05-22T10:20:20.827Z,35.31
2023-05-22T10:22:52.313Z,35.37
2023-05-22T10:25:24.587Z,35.33
2023-05-22T10:27:57.267Z,35.48
2023-05-22T10:30:36.403Z,35.48
2023-05-22T10:33:39.162Z,35.47
2023-05-22T10:36:13.386Z,35.26
2023-05-22T10:38:58.650Z,34.98
2023-05-22T10:41:31.208Z,34.97
2023-05-22T10:44:03.733Z,35.20
2023-05-22T10:46:37.452Z,35.05
2023-05-22T10:49:09.010Z,35.08
2023-05-22T10:51:40.406Z,34.96
2023-05-22T10:54:11.977Z,35.07
2023-05-22T10:56:43.367Z,34.86
2023-05-22T10:59:14.675Z,34.97
2023-05-22T11:01:45.986Z,35.08
2023-05-22T11:04:27.901Z,35.00
2023-05-22T11:07:08.752Z,34.93
2023-05-22T11:09:45.981Z,34.96
2023-05-22T11:12:31.173Z,35.00
2023-05-22T11:15:09.746Z,34.79
2023-05-22T11:17:51.550Z,34.73
2023-05-22T11:20:24.485Z,34.62
2023-05-22T11:23:00.520Z,34.69
2023-05-22T11:25:33.919Z,34.69
2023-05-22T11:28:06.958Z,34.74
2023-05-22T11:30:39.405Z,34.65
2023-05-22T11:33:11.203Z,34.58
2023-05-22T11:35:44.580Z,34.54
2023-05-22T11:38:16.321Z,34.52
2023-05-22T11:40:47.512Z,34.58
2023-05-22T11:43:30.017Z,34.45
2023-05-22T11:46:09.163Z,34.45
2023-05-22T11:48:43.748Z,34.25
2023-05-22T11:51:15.767Z,34.24
2023-05-22T11:53:48.194Z,34.09
2023-05-22T11:56:23.677Z,34.01
2023-05-22T11:58:55.361Z,33.68
2023-05-22T12:01:26.629Z,33.38
2023-05-22T12:03:57.706Z,33.57
2023-05-22T12:06:33.159Z,33.69
2023-05-22T12:09:04.905Z,33.61
2023-05-22T12:11:38.969Z,33.77
2023-05-22T12:14:14.774Z,33.79
2023-05-22T12:16:46.212Z,34.01
2023-05-22T12:19:18.791Z,33.87
2023-05-22T12:21:52.275Z,33.59
2023-05-22T12:24:24.578Z,33.29
2023-05-22T12:26:56.827Z,33.29
2023-05-22T12:29:28.174Z,33.46
2023-05-22T12:32:05.277Z,33.58
2023-05-22T12:34:37.872Z,33.72
2023-05-22T12:37:21.383Z,33.55
2023-05-22T12:40:00.594Z,33.69
2023-05-22T12:42:31.855Z,33.87
2023-05-22T12:45:03.219Z,34.04
2023-05-22T12:47:34.382Z,34.06
2023-05-22T12:50:06.157Z,33.85
2023-05-22T12:52:37.306Z,33.83
2023-05-22T12:55:11.643Z,33.67
2023-05-22T12:57:42.828Z,33.54
2023-05-22T13:00:16.761Z,33.42
2023-05-22T13:02:48.005Z,33.34
2023-05-22T13:05:19.571Z,33.16
2023-05-22T13:07:51.396Z,33.05
2023-05-22T13:10:23.020Z,32.99
2023-05-22T13:12:54.370Z,32.91
2023-05-22T13:15:25.609Z,32.82
2023-05-22T13:17:57.501Z,32.69
2023-05-22T13:20:28.507Z,32.46
2023-05-22T13:22:59.548Z,32.18
2023-05-22T13:25:31.368Z,32.04
2023-05-22T13:28:03.749Z,31.81
2023-05-22T13:30:35.236Z,31.99
2023-05-22T13:33:06.709Z,31.68
2023-05-22T13:35:38.112Z,31.45
2023-05-22T13:38:09.587Z,31.12
2023-05-22T13:40:40.726Z,31.45
2023-05-22T13:43:12.088Z,31.77
2023-05-22T13:45:43.416Z,31.73
2023-05-22T13:48:15.279Z,31.79
2023-05-22T13:50:46.797Z,31.84
2023-05-22T13:53:27.567Z,31.93
2023-05-22T13:55:58.969Z,31.98
2023-05-22T13:58:30.046Z,31.96
2023-05-22T14:01:01.599Z,32.13
2023-05-22T14:03:33.160Z,32.15
2023-05-22T14:06:04.768Z,32.21
2023-05-22T14:08:36.029Z,32.20
2023-05-22T14:11:07.287Z,32.31
2023-05-22T14:13:39.040Z,32.32
2023-05-22T14:16:10.510Z,32.22
2023-05-22T14:18:41.626Z,32.01
2023-05-22T14:21:13.151Z,31.77
2023-05-22T14:23:44.327Z,31.58
2023-05-22T14:26:16.309Z,31.67
2023-05-22T14:28:47.789Z,31.76
2023-05-22T14:31:19.203Z,31.83
2023-05-22T14:33:50.657Z,31.79
2023-05-22T14:36:22.083Z,31.72
2023-05-22T14:38:56.804Z,31.66
2023-05-22T14:41:27.914Z,31.62
2023-05-22T14:43:59.197Z,31.47
2023-05-22T14:46:30.954Z,31.33
2023-05-22T14:49:02.094Z,31.42
2023-05-22T14:51:33.718Z,31.56
2023-05-22T14:54:05.154Z,31.73
2023-05-22T14:56:36.120Z,31.85
2023-05-22T14:59:07.291Z,31.84
2023-05-22T15:01:38.513Z,31.70
2023-05-22T15:04:09.774Z,31.63
2023-05-22T15:06:41.343Z,31.56
2023-05-22T15:09:13.152Z,31.78
2023-05-22T15:11:46.734Z,31.63
2023-05-22T15:14:18.395Z,31.54
2023-05-22T15:16:50.338Z,31.30
2023-05-22T15:19:21.628Z,31.47
2023-05-22T15:21:52.818Z,31.60
2023-05-22T15:24:23.862Z,31.69
2023-05-22T15:26:55.071Z,31.73
2023-05-22T15:29:26.232Z,31.63
2023-05-22T15:31:57.654Z,31.82
2023-05-22T15:34:29.060Z,31.69
2023-05-22T15:37:00.113Z,31.72
2023-05-22T15:39:31.773Z,31.78
2023-05-22T15:42:06.566Z,31.63
2023-05-22T15:44:38.280Z,31.55
2023-05-22T15:47:09.471Z,31.56
2023-05-22T15:49:41.216Z,31.40
2023-05-22T15:52:12.201Z,31.39
2023-05-22T15:54:43.329Z,31.44
2023-05-22T15:57:14.610Z,31.42
2023-05-22T15:59:47.203Z,31.34
2023-05-22T16:02:19.424Z,31.56
2023-05-22T16:04:52.067Z,31.82
2023-05-22T16:07:23.126Z,31.67
2023-05-22T16:09:54.337Z,31.78
2023-05-22T16:12:25.665Z,31.72
2023-05-22T16:15:01.189Z,31.60
2023-05-22T16:17:33.025Z,31.49
2023-05-22T16:20:05.339Z,31.31
2023-05-22T16:22:47.895Z,31.23
2023-05-22T16:25:20.480Z,31.16
2023-05-22T16:27:51.749Z,31.26
2023-05-22T16:30:23.460Z,31.25
2023-05-22T16:32:54.586Z,31.23
2023-05-22T16:35:26.181Z,31.36
2023-05-22T16:37:57.430Z,31.40
2023-05-22T16:40:28.699Z,31.41
2023-05-22T16:42:59.732Z,31.55
2023-05-22T16:45:30.738Z,31.57
2023-05-22T16:48:01.998Z,31.57
2023-05-22T16:50:33.424Z,31.49
2023-05-22T16:53:04.250Z,31.53
2023-05-22T16:55:35.777Z,31.53
2023-05-22T16:58:06.598Z,31.60
2023-05-22T17:00:37.964Z,31.58
2023-05-22T17:03:10.098Z,31.61
2023-05-22T17:05:41.697Z,31.75
2023-05-22T17:08:13.086Z,31.86
2023-05-22T17:10:44.372Z,31.80
2023-05-22T17:13:20.865Z,31.83
2023-05-22T17:15:52.835Z,32.02
2023-05-22T17:18:24.394Z,32.09
2023-05-22T17:20:55.867Z,32.13
2023-05-22T17:23:26.797Z,32.22
2023-05-22T17:25:57.782Z,32.42
2023-05-22T17:28:29.437Z,32.51
2023-05-22T17:31:00.893Z,32.52
2023-05-22T17:33:32.436Z,32.69
2023-05-22T17:36:03.976Z,32.83
2023-05-22T17:38:34.945Z,32.86
2023-05-22T17:41:06.505Z,32.72
2023-05-22T17:43:38.371Z,32.82
2023-05-22T17:46:09.815Z,33.24
2023-05-22T17:48:41.133Z,33.16
2023-05-22T17:51:12.628Z,33.45
2023-05-22T17:53:44.109Z,33.52
2023-05-22T17:56:15.358Z,33.67
2023-05-22T17:58:46.479Z,33.92
2023-05-22T18:01:18.333Z,34.00
2023-05-22T18:03:49.565Z,34.04
2023-05-22T18:06:23.969Z,33.97
2023-05-22T18:08:56.552Z,34.07
2023-05-22T18:11:28.073Z,33.88
2023-05-22T18:13:59.501Z,33.96
2023-05-22T18:16:30.658Z,34.17
2023-05-22T18:19:01.951Z,34.14
2023-05-22T18:21:32.959Z,34.14
2023-05-22T18:24:04.335Z,34.16
2023-05-22T18:26:35.526Z,34.04
2023-05-22T18:29:06.351Z,34.09
2023-05-22T18:31:37.587Z,34.06
2023-05-22T18:34:08.889Z,34.26
2023-05-22T18:36:41.550Z,34.45
2023-05-22T18:39:13.078Z,34.40
2023-05-22T18:41:44.266Z,34.40
2023-05-22T18:44:15.201Z,35.46
2023-05-22T18:46:46.119Z,37.72
2023-05-22T18:49:17.695Z,38.68
2023-05-22T18:51:49.056Z,40.26
2023-05-22T18:54:20.387Z,42.40
2023-05-22T18:56:51.841Z,42.84
2023-05-22T18:59:22.825Z,43.37
2023-05-22T19:01:54.145Z,44.82
2023-05-22T19:04:25.167Z,45.99
2023-05-22T19:06:56.530Z,48.09
2023-05-22T19:09:28.218Z,48.54
2023-05-22T19:11:59.614Z,49.01
2023-05-22T19:14:30.974Z,49.74
2023-05-22T19:17:02.099Z,50.01
2023-05-22T19:19:33.157Z,50.29
2023-05-22T19:22:04.280Z,50.15
2023-05-22T19:24:35.540Z,50.50
2023-05-22T19:27:07.526Z,51.99
2023-05-22T19:29:39.148Z,50.30
2023-05-22T19:32:11.125Z,50.75
2023-05-22T19:34:42.575Z,50.78
2023-05-22T19:37:14.157Z,51.48
2023-05-22T19:39:45.016Z,50.78
2023-05-22T19:42:16.180Z,53.93
2023-05-22T19:44:47.541Z,53.11
2023-05-22T19:47:18.993Z,54.37
2023-05-22T19:49:50.247Z,53.51
2023-05-22T19:52:21.284Z,53.18
2023-05-22T19:54:52.922Z,53.47
2023-05-22T19:57:24.067Z,52.17
2023-05-22T19:59:55.265Z,51.65
2023-05-22T20:02:26.544Z,51.47
2023-05-22T20:04:58.015Z,51.44
2023-05-22T20:07:29.055Z,50.92
2023-05-22T20:10:00.439Z,51.00
2023-05-22T20:12:31.884Z,50.74
2023-05-22T20:15:03.293Z,50.68
2023-05-22T20:17:34.726Z,50.58
2023-05-22T20:20:07.934Z,50.63
2023-05-22T20:22:39.453Z,50.21
2023-05-22T20:25:14.017Z,49.82
2023-05-22T20:27:45.539Z,49.66
2023-05-22T20:30:17.548Z,49.28
2023-05-22T20:32:48.824Z,48.69
2023-05-22T20:35:22.493Z,48.33
2023-05-22T20:37:53.944Z,47.79
2023-05-22T20:40:26.512Z,47.05
2023-05-22T20:42:58.377Z,47.44
2023-05-22T20:45:30.233Z,47.59
2023-05-22T20:48:01.796Z,47.11
2023-05-22T20:50:37.488Z,47.25
2023-05-22T20:53:10.533Z,47.40
2023-05-22T20:55:42.174Z,47.54
2023-05-22T20:58:13.448Z,47.65
2023-05-22T21:00:44.459Z,47.72
2023-05-22T21:03:16.304Z,47.47
2023-05-22T21:05:47.268Z,47.16
2023-05-22T21:08:18.509Z,47.17
2023-05-22T21:10:49.604Z,46.85
2023-05-22T21:13:22.436Z,46.62
2023-05-22T21:15:53.836Z,46.52
2023-05-22T21:18:25.308Z,46.17
2023-05-22T21:20:56.638Z,45.76
2023-05-22T21:23:27.668Z,45.51
2023-05-22T21:25:58.521Z,47.88
2023-05-22T21:28:29.811Z,48.02
2023-05-22T21:31:00.726Z,47.23
2023-05-22T21:33:31.835Z,47.63
2023-05-22T21:36:02.880Z,48.59
2023-05-22T21:38:33.881Z,49.21
2023-05-22T21:41:05.210Z,49.84
2023-05-22T21:43:36.359Z,50.21
2023-05-22T21:46:07.868Z,50.03
2023-05-22T21:48:38.921Z,50.00
2023-05-22T21:51:10.474Z,49.88
2023-05-22T21:53:42.130Z,49.92
2023-05-22T21:56:13.603Z,49.86
2023-05-22T21:58:44.661Z,49.92
2023-05-22T22:01:15.852Z,49.77
2023-05-22T22:03:47.773Z,49.78
2023-05-22T22:06:19.212Z,49.88
2023-05-22T22:08:50.654Z,50.01
2023-05-22T22:11:22.706Z,50.17
2023-05-22T22:13:54.364Z,50.14
2023-05-22T22:16:25.422Z,50.30
2023-05-22T22:18:58.426Z,50.47
2023-05-22T22:21:29.536Z,50.44
2023-05-22T22:24:00.712Z,50.30
2023-05-22T22:26:32.363Z,50.41
2023-05-22T22:29:04.003Z,50.49
2023-05-22T22:31:35.970Z,50.62
2023-05-22T22:34:07.872Z,50.51
2023-05-22T22:36:39.380Z,50.47
2023-05-22T22:39:10.943Z,50.48
2023-05-22T22:41:43.814Z,50.53
2023-05-22T22:44:15.560Z,50.53
2023-05-22T22:46:46.973Z,50.60
2023-05-22T22:49:21.705Z,50.67
2023-05-22T22:51:54.031Z,50.72
2023-05-22T22:54:25.657Z,50.75
2023-05-22T22:56:57.379Z,50.79
2023-05-22T22:59:28.473Z,50.99
2023-05-22T23:01:59.843Z,50.97
2023-05-22T23:04:31.473Z,50.97
2023-05-22T23:07:03.459Z,51.02
2023-05-22T23:09:34.462Z,50.89
2023-05-22T23:12:06.647Z,50.92
2023-05-22T23:14:38.090Z,51.06
2023-05-22T23:17:09.380Z,51.06
2023-05-22T23:19:40.681Z,51.03
2023-05-22T23:22:12.234Z,51.07
2023-05-22T23:24:43.601Z,50.99
2023-05-22T23:27:15.431Z,50.97
2023-05-22T23:29:46.619Z,50.92
2023-05-22T23:32:17.919Z,50.84
2023-05-22T23:34:49.179Z,50.83
2023-05-22T23:37:20.553Z,50.72
2023-05-22T23:39:51.406Z,50.63
2023-05-22T23:42:22.881Z,50.38
2023-05-22T23:44:54.073Z,50.37
2023-05-22T23:47:25.673Z,50.18
2023-05-22T23:49:56.969Z,50.07
2023-05-22T23:52:28.662Z,50.07
2023-05-22T23:55:00.703Z,49.84
2023-05-22T23:57:32.482Z,49.69
